Time;durP1;ratioP1;P1;durP2;ratioP2;P2;SDS_P1;SDS_P2;PMS_P1;PMS_P2;Temp;Humidity;BMP_temperature;BMP_pressure;BME280_temperature;BME280_humidity;BME280_pressure;Samples;Min_cycle;Max_cycle;Signal;HPM_P1;HPM_P2
2022/06/03 00:02:07;;;;;;;7.30;4.75;;;12.20;99.90;;;-144.05;59.85;125687.94;4973581;28;20034;-86
2022/06/03 00:04:53;;;;;;;8.02;5.13;;;12.10;99.90;;;-144.05;60.10;125687.94;4973561;28;20031;-84
2022/06/03 00:08:08;;;;;;;6.90;4.63;;;12.00;99.90;;;-144.05;60.99;125687.94;4957970;28;20085;-86
2022/06/03 00:11:21;;;;;;;5.03;4.30;;;11.80;99.90;;;-144.05;61.04;125687.94;4977140;28;20031;-84
2022/06/03 00:14:35;;;;;;;6.97;4.80;;;11.80;99.90;;;-144.05;61.39;125687.94;4918758;28;20062;-85
2022/06/03 00:17:46;;;;;;;5.72;4.63;;;11.70;99.90;;;-144.05;61.77;125687.94;4977556;28;20078;-85
2022/06/03 00:20:31;;;;;;;6.68;4.43;;;11.70;99.90;;;-144.05;61.66;125687.94;4977386;28;20047;-87
2022/06/03 00:23:51;;;;;;;11.65;4.85;;;11.60;99.90;;;-144.05;61.81;125687.94;4977289;28;20056;-83
2022/06/03 00:26:46;;;;;;;7.50;4.88;;;11.70;99.90;;;-144.05;61.50;125687.94;4977654;28;20064;-84
2022/06/03 00:29:37;;;;;;;6.70;4.18;;;11.70;99.90;;;-144.05;61.87;125687.94;4975301;28;20039;-86
2022/06/03 00:32:45;;;;;;;5.10;4.18;;;11.60;99.90;;;-144.05;62.26;125687.94;4978448;28;20442;-87
2022/06/03 00:35:49;;;;;;;7.75;5.53;;;11.50;99.90;;;-144.05;62.45;125687.94;4978369;28;20030;-84
2022/06/03 00:38:42;;;;;;;6.35;4.93;;;11.50;99.90;;;-144.05;62.84;125687.94;4978407;28;20114;-84
2022/06/03 00:41:38;;;;;;;6.40;5.78;;;11.40;99.90;;;-144.05;63.13;125687.94;4994515;28;20060;-85
2022/06/03 00:44:41;;;;;;;8.25;5.15;;;11.40;99.90;;;-144.05;63.30;125687.94;4964261;28;20115;-88
2022/06/03 00:47:37;;;;;;;12.75;5.72;;;11.30;99.90;;;-144.05;63.45;125687.94;4979450;28;20047;-85
2022/06/03 00:51:08;;;;;;;7.10;5.47;;;11.30;99.90;;;-144.05;63.69;125687.94;4977227;28;20030;-85
2022/06/03 00:53:54;;;;;;;7.85;5.03;;;11.30;99.90;;;-144.05;63.75;125687.94;4960501;28;20086;-83
2022/06/03 00:56:55;;;;;;;6.68;5.28;;;11.30;99.90;;;-144.05;64.42;125687.94;4976387;28;20031;-83
2022/06/03 00:59:39;;;;;;;14.98;5.90;;;11.20;99.90;;;-144.05;64.80;125687.94;4960283;28;20398;-84
2022/06/03 01:03:10;;;;;;;10.27;6.20;;;11.20;99.90;;;-144.05;65.36;125687.94;4976572;28;20507;-85
2022/06/03 01:06:16;;;;;;;8.05;5.10;;;11.10;99.90;;;-144.05;65.62;125687.94;4992794;28;20038;-85
2022/06/03 01:09:38;;;;;;;7.65;5.97;;;11.10;99.90;;;-144.05;65.92;125687.94;4976647;28;20113;-84
2022/06/03 01:12:42;;;;;;;8.13;5.80;;;11.00;99.90;;;-144.05;66.56;125687.94;4976209;28;20390;-85
2022/06/03 01:15:36;;;;;;;8.80;5.65;;;11.00;99.90;;;-144.05;66.46;125687.94;4976497;28;20027;-85
2022/06/03 01:18:08;;;;;;;7.95;5.43;;;11.00;99.90;;;-144.05;66.42;125687.94;4991705;28;20015;-83
2022/06/03 01:20:48;;;;;;;8.88;5.72;;;11.00;99.90;;;-144.05;66.46;125687.94;4994990;28;20046;-84
2022/06/03 01:23:57;;;;;;;10.00;5.82;;;10.90;99.90;;;-144.05;66.54;125687.94;4960238;28;20031;-84
2022/06/03 01:26:41;;;;;;;5.50;4.82;;;11.00;99.90;;;-144.05;66.74;125687.94;4976097;28;20035;-83
2022/06/03 01:29:34;;;;;;;8.68;5.47;;;10.90;99.90;;;-144.05;66.95;125687.94;4975909;28;20472;-83
2022/06/03 01:32:38;;;;;;;6.80;6.07;;;10.80;99.90;;;-144.05;67.15;125687.94;4976306;28;20023;-83
2022/06/03 01:36:07;;;;;;;6.25;5.65;;;10.80;99.90;;;-144.05;67.25;125687.94;4978258;28;20035;-86
2022/06/03 01:39:14;;;;;;;9.63;5.78;;;10.70;99.90;;;-144.05;68.36;125687.94;4964864;28;20031;-85
2022/06/03 01:42:27;;;;;;;6.68;5.50;;;10.70;99.90;;;-144.05;68.32;125687.94;4976188;28;20026;-85
2022/06/03 01:45:17;;;;;;;8.40;6.32;;;10.60;99.90;;;-144.05;68.20;125687.94;4975744;28;20077;-85
2022/06/03 01:48:02;;;;;;;9.65;6.70;;;10.60;99.90;;;-144.05;68.34;125687.94;4976207;28;20042;-84
2022/06/03 01:51:00;;;;;;;6.70;5.53;;;10.60;99.90;;;-144.05;68.15;125687.94;4959777;28;20045;-84
2022/06/03 01:54:29;;;;;;;8.07;6.28;;;10.60;99.90;;;-144.05;68.67;125687.94;4976032;28;20081;-85
2022/06/03 01:57:23;;;;;;;9.10;6.38;;;10.60;99.90;;;-144.05;68.52;125687.94;4975759;28;20038;-83
2022/06/03 02:00:30;;;;;;;8.77;6.45;;;10.60;99.90;;;-144.05;68.45;125687.94;4959557;28;20094;-85
2022/06/03 02:03:34;;;;;;;;;;;10.50;99.90;;;-144.05;68.84;125687.94;4975768;28;20113;-85
2022/06/03 02:06:26;;;;;;;6.35;4.90;;;10.40;99.90;;;-144.05;68.68;125687.94;4975922;28;19941;-84
2022/06/03 02:09:10;;;;;;;7.20;5.20;;;10.40;99.90;;;-144.05;69.18;125687.94;4959403;28;20027;-86
2022/06/03 02:12:11;;;;;;;8.40;5.70;;;10.30;99.90;;;-144.05;69.21;125687.94;4975973;28;20059;-85
2022/06/03 02:15:49;;;;;;;6.97;5.60;;;10.30;99.90;;;-144.05;69.83;125687.94;4959820;28;20034;-84
2022/06/03 02:19:20;;;;;;;8.77;5.78;;;10.20;99.90;;;-144.05;70.01;125687.94;4933956;28;20055;-83
2022/06/03 02:22:52;;;;;;;7.20;5.55;;;10.20;99.90;;;-144.05;70.07;125687.94;4975553;28;20097;-83
2022/06/03 02:26:17;;;;;;;7.60;5.55;;;10.20;99.90;;;-144.05;70.03;125687.94;4975445;28;20055;-85
2022/06/03 02:33:18;;;;;;;9.73;6.53;;;10.20;99.90;;;-144.05;70.15;125687.94;4976218;28;20089;-85
2022/06/03 02:35:47;;;;;;;8.75;5.43;;;10.10;99.90;;;-144.05;70.32;125687.94;4968726;28;20081;-84
2022/06/03 02:38:37;;;;;;;7.82;6.00;;;10.10;99.90;;;-144.05;70.53;125687.94;4959542;28;20030;-84
2022/06/03 02:41:47;;;;;;;12.18;6.15;;;10.10;99.90;;;-144.05;70.65;125687.94;4975517;28;20026;-84
2022/06/03 02:45:14;;;;;;;9.48;6.40;;;10.10;99.90;;;-144.05;70.54;125687.94;4975786;28;20121;-85
2022/06/03 02:48:54;;;;;;;8.07;5.55;;;10.00;99.90;;;-144.05;71.35;125687.94;4959532;28;20054;-83
2022/06/03 02:52:10;;;;;;;7.68;5.85;;;10.00;99.90;;;-144.05;71.03;125687.94;4975161;28;20034;-84
2022/06/03 02:55:23;;;;;;;7.93;5.80;;;10.00;99.90;;;-144.05;71.26;125687.94;4959744;28;20089;-86
2022/06/03 02:59:11;;;;;;;8.15;6.03;;;10.00;99.90;;;-144.05;71.37;125687.94;4944905;28;20043;-84
2022/06/03 03:02:08;;;;;;;11.30;6.40;;;10.00;99.90;;;-144.05;71.42;125687.94;4973367;28;20027;-85
2022/06/03 03:04:42;;;;;;;7.10;6.10;;;10.00;99.90;;;-144.05;71.67;125687.94;4960406;28;20030;-85
2022/06/03 03:07:48;;;;;;;10.15;6.78;;;10.00;99.90;;;-144.05;71.53;125687.94;4975679;28;20038;-85
2022/06/03 03:11:26;;;;;;;6.93;6.22;;;9.90;99.90;;;-144.05;72.09;125687.94;4975723;28;20049;-83
2022/06/03 03:14:32;;;;;;;8.48;6.80;;;9.90;99.90;;;-144.05;71.43;125687.94;4965558;28;20031;-83
2022/06/03 03:18:02;;;;;;;7.97;5.18;;;9.90;99.90;;;-144.05;71.35;125687.94;4976002;28;20058;-85
2022/06/03 03:21:22;;;;;;;7.43;6.00;;;9.80;99.90;;;-144.05;71.80;125687.94;4967842;28;20031;-85
2022/06/03 03:24:48;;;;;;;7.15;5.65;;;9.80;99.90;;;-144.05;72.34;125687.94;4975027;28;20475;-92
2022/06/03 03:27:43;;;;;;;10.60;6.13;;;9.80;99.90;;;-144.05;72.35;125687.94;4987861;28;20055;-77
2022/06/03 03:30:42;;;;;;;7.75;5.72;;;9.80;99.90;;;-144.05;71.90;125687.94;4984205;28;20042;-81
2022/06/03 03:34:02;;;;;;;7.40;5.72;;;9.80;99.90;;;-144.05;72.10;125687.94;4987846;28;20037;-89
2022/06/03 03:37:05;;;;;;;9.43;6.20;;;9.80;99.90;;;-144.05;71.96;125687.94;4977371;28;20034;-88
2022/06/03 03:40:23;;;;;;;10.10;6.55;;;9.80;99.90;;;-144.05;72.29;125687.94;4980639;28;20082;-89
2022/06/03 03:43:48;;;;;;;9.43;5.88;;;9.70;99.90;;;-144.05;72.74;125687.94;4976103;28;20051;-89
2022/06/03 03:46:59;;;;;;;7.45;5.70;;;9.60;99.90;;;-144.05;73.08;125687.94;4972660;28;20034;-83
2022/06/03 03:50:15;;;;;;;7.25;6.10;;;9.60;99.90;;;-144.05;73.08;125687.94;4984373;28;20026;-86
2022/06/03 03:53:41;;;;;;;10.05;6.53;;;9.60;99.90;;;-144.05;73.17;125687.94;4987006;28;20023;-89
2022/06/03 03:56:46;;;;;;;9.65;6.72;;;9.60;99.90;;;-144.05;73.61;125687.94;4978439;28;20031;-86
2022/06/03 03:59:59;;;;;;;9.25;6.47;;;9.50;99.90;;;-144.05;73.85;125687.94;4988035;28;20019;-85
2022/06/03 04:02:58;;;;;;;6.97;5.28;;;9.50;99.90;;;-144.05;74.10;125687.94;4982987;28;20113;-88
2022/06/03 04:05:59;;;;;;;9.52;6.88;;;9.50;99.90;;;-144.05;74.68;125687.94;4982648;28;20050;-85
2022/06/03 04:09:41;;;;;;;9.82;6.22;;;9.50;99.90;;;-144.05;74.45;125687.94;4981017;28;20118;-88
2022/06/03 04:13:13;;;;;;;9.82;6.50;;;9.50;99.90;;;-144.05;74.46;125687.94;4986902;28;20062;-84
2022/06/03 04:16:22;;;;;;;8.15;6.18;;;9.50;99.90;;;-144.05;74.27;125687.94;4972074;28;20062;-86
2022/06/03 04:19:10;;;;;;;8.60;6.43;;;9.50;99.90;;;-144.05;74.48;125687.94;4965868;28;20039;-86
2022/06/03 04:22:05;;;;;;;9.48;7.38;;;9.50;99.90;;;-144.05;74.63;125687.94;4994928;28;20031;-89
2022/06/03 04:25:30;;;;;;;10.88;7.20;;;9.50;99.90;;;-144.05;74.39;125687.94;4983534;28;20502;-85
2022/06/03 04:28:18;;;;;;;11.55;6.95;;;9.60;99.90;;;-144.05;74.19;125687.94;4967142;28;20058;-88
2022/06/03 04:31:43;;;;;;;9.30;6.63;;;9.70;99.90;;;-144.05;73.14;125687.94;4982201;28;20081;-89
2022/06/03 04:34:36;;;;;;;7.45;6.50;;;9.80;99.90;;;-144.05;72.77;125687.94;4966222;28;20054;-86
2022/06/03 04:38:07;;;;;;;8.20;6.40;;;10.00;99.90;;;-144.05;71.69;125687.94;4966316;28;20038;-88
2022/06/03 04:40:54;;;;;;;9.30;6.95;;;10.20;99.90;;;-144.05;70.30;125687.94;4982563;28;20037;-85
2022/06/03 04:44:10;;;;;;;8.32;6.50;;;10.40;99.90;;;-144.05;68.99;125687.94;4984063;28;20041;-87
2022/06/03 04:47:23;;;;;;;9.63;6.22;;;10.60;99.90;;;-144.05;67.51;125687.94;4983289;28;20031;-89
2022/06/03 04:50:47;;;;;;;9.88;6.47;;;10.80;99.90;;;-144.05;66.61;125687.94;4965711;28;20050;-88
2022/06/03 04:54:15;;;;;;;7.95;6.15;;;11.00;99.90;;;-144.05;65.55;125687.94;4967572;28;20467;-86
2022/06/03 04:57:08;;;;;;;9.27;6.10;;;11.20;99.90;;;-144.05;64.33;125687.94;4998347;28;20027;-89
2022/06/03 05:00:07;;;;;;;9.00;5.95;;;11.40;99.90;;;-144.05;63.40;125687.94;4981477;28;20039;-86
2022/06/03 05:03:18;;;;;;;8.95;5.43;;;11.50;99.90;;;-144.05;62.72;125687.94;4981707;28;20527;-88
2022/06/03 05:06:18;;;;;;;12.45;5.60;;;11.70;99.90;;;-144.05;60.96;125687.94;4982768;28;20026;-87
2022/06/03 05:10:22;;;;;;;8.30;5.50;;;12.00;99.90;;;-144.05;60.68;125687.94;4979704;28;20031;-84
2022/06/03 05:13:32;;;;;;;7.20;5.32;;;12.10;99.90;;;-144.05;58.59;125687.94;4957381;28;20028;-87
2022/06/03 05:17:26;;;;;;;7.10;5.07;;;12.40;99.90;;;-144.05;57.76;125687.94;4960253;29;20038;-84
2022/06/03 05:20:35;;;;;;;9.60;4.75;;;12.60;99.90;;;-144.05;56.97;125687.94;4940773;29;20079;-87
2022/06/03 05:23:50;;;;;;;7.00;4.53;;;12.70;99.90;;;-144.05;56.25;125687.94;4932806;29;20043;-87
2022/06/03 05:27:04;;;;;;;5.85;4.88;;;13.00;99.90;;;-144.05;54.94;125687.94;4941907;29;20065;-83
2022/06/03 05:30:05;;;;;;;9.32;5.07;;;13.30;99.90;;;-144.05;53.50;125687.94;4962178;29;20075;-86
2022/06/03 05:33:17;;;;;;;6.40;4.50;;;13.70;99.90;;;-144.05;52.58;125687.94;4975871;28;20027;-84
2022/06/03 05:36:11;;;;;;;5.78;3.92;;;14.00;99.90;;;-144.05;51.98;125687.94;4962074;28;20045;-85
2022/06/03 05:39:13;;;;;;;4.88;4.38;;;14.30;99.90;;;-144.05;50.53;125687.94;4958853;29;20638;-88
2022/06/03 05:42:29;;;;;;;4.90;4.05;;;14.60;99.90;;;-144.05;50.32;125687.94;4959874;29;20126;-86
2022/06/03 05:45:41;;;;;;;5.00;3.70;;;14.80;99.90;;;-144.05;50.33;125687.94;4930400;29;20050;-81
2022/06/03 05:48:29;;;;;;;4.88;3.72;;;15.10;99.90;;;-144.05;49.23;125687.94;4955910;29;20479;-86
2022/06/03 05:51:33;;;;;;;8.65;4.45;;;15.60;99.90;;;-144.05;47.96;125687.94;4957033;29;20042;-85
2022/06/03 05:54:35;;;;;;;8.27;3.75;;;15.90;99.90;;;-144.05;47.05;125687.94;4957153;28;20594;-85
2022/06/03 05:57:16;;;;;;;5.03;3.47;;;16.10;99.90;;;-144.05;46.23;125687.94;4957937;29;20102;-85
2022/06/03 06:00:50;;;;;;;6.38;3.72;;;16.40;99.90;;;-144.05;45.43;125687.94;4959795;29;20069;-87
2022/06/03 06:03:46;;;;;;;7.88;4.15;;;16.70;99.90;;;-144.05;44.71;125687.94;4959854;28;20452;-87
2022/06/03 06:06:51;;;;;;;7.85;3.28;;;16.90;99.90;;;-144.05;44.73;125687.94;4953912;28;20042;-88
2022/06/03 06:09:50;;;;;;;8.85;3.83;;;17.00;99.90;;;-144.05;44.32;125687.94;4944923;29;20048;-89
2022/06/03 06:12:58;;;;;;;5.03;3.38;;;17.20;99.90;;;-144.05;43.65;125687.94;4952805;28;20031;-87
2022/06/03 06:15:59;;;;;;;6.60;3.60;;;17.20;99.90;;;-144.05;43.07;125687.94;4955389;29;20027;-87
2022/06/03 06:19:12;;;;;;;4.05;3.58;;;17.40;99.90;;;-144.05;43.15;125687.94;4958285;29;20038;-89
2022/06/03 06:22:12;;;;;;;6.63;3.80;;;17.60;99.90;;;-144.05;42.43;125687.94;4943645;29;20122;-84
2022/06/03 06:24:55;;;;;;;4.78;3.97;;;17.90;99.90;;;-144.05;42.15;125687.94;4961072;28;20094;-85
2022/06/03 06:28:01;;;;;;;3.97;3.40;;;18.30;99.90;;;-144.05;41.09;125687.94;4959642;29;20043;-89
2022/06/03 06:31:12;;;;;;;6.10;3.55;;;18.50;99.90;;;-144.05;40.54;125687.94;4941354;29;20041;-90
2022/06/03 06:34:32;;;;;;;4.38;3.47;;;18.50;99.90;;;-144.05;42.37;125687.94;4958728;28;20055;-85
2022/06/03 06:37:55;;;;;;;4.68;3.42;;;18.60;99.90;;;-144.05;40.60;125687.94;4957722;29;20034;-89
2022/06/03 06:40:56;;;;;;;3.63;3.00;;;18.90;99.90;;;-144.05;40.12;125687.94;4962004;29;20027;-89
2022/06/03 06:44:24;;;;;;;5.05;3.63;;;19.20;99.90;;;-144.05;39.49;125687.94;4962773;28;20023;-92
2022/06/03 06:47:06;;;;;;;4.30;3.30;;;19.50;99.90;;;-144.05;39.17;125687.94;4961997;29;20097;-89
2022/06/03 06:49:59;;;;;;;4.95;2.90;;;19.70;99.60;;;-144.05;38.75;125687.94;4956687;29;20042;-88
2022/06/03 06:53:08;;;;;;;4.75;2.30;;;20.10;99.00;;;-144.05;37.78;125687.94;4940715;28;20059;-87
2022/06/03 06:56:38;;;;;;;4.97;2.78;;;20.50;96.20;;;-144.05;36.79;125687.94;4957309;29;20500;-92
2022/06/03 06:59:30;;;;;;;7.22;2.88;;;20.90;91.30;;;-144.05;36.70;125687.94;4914051;29;20090;-89
2022/06/03 07:02:21;;;;;;;5.63;2.95;;;21.00;90.40;;;-144.05;36.54;125687.94;4956892;29;20043;-90
2022/06/03 07:05:28;;;;;;;2.90;2.53;;;21.00;89.20;;;-144.05;36.58;125687.94;4957672;29;20031;-89
2022/06/03 07:08:26;;;;;;;3.92;2.88;;;21.10;89.30;;;-144.05;36.51;125687.94;4947516;29;20081;-87
2022/06/03 07:11:20;;;;;;;7.22;2.88;;;21.30;85.50;;;-144.05;36.70;125687.94;4964782;28;20407;-88
2022/06/03 07:14:18;;;;;;;4.25;2.70;;;21.60;88.50;;;-144.05;34.70;125687.94;4975054;28;20019;-89
2022/06/03 07:20:40;;;;;;;4.88;2.08;;;21.20;78.90;;;-144.05;36.53;125687.94;4978308;28;20042;-88
2022/06/03 07:23:44;;;;;;;4.82;2.15;;;21.20;85.50;;;-144.05;35.46;125687.94;4968371;28;20035;-87
2022/06/03 07:26:37;;;;;;;2.83;2.10;;;21.80;81.60;;;-144.05;35.14;125687.94;4974446;28;20066;-88
2022/06/03 07:29:34;;;;;;;6.07;1.95;;;22.30;81.00;;;-144.05;34.63;125687.94;4977576;28;20061;-88
2022/06/03 07:32:21;;;;;;;3.88;2.10;;;22.70;78.10;;;-144.05;34.25;125687.94;4976881;28;20037;-83
2022/06/03 07:35:14;;;;;;;7.60;2.30;;;22.80;76.80;;;-144.05;34.13;125687.94;4976394;28;20023;-89
2022/06/03 07:37:55;;;;;;;3.17;2.20;;;22.60;74.30;;;-144.05;35.19;125687.94;4992071;28;20030;-80
2022/06/03 07:40:43;;;;;;;3.03;2.05;;;22.80;76.90;;;-144.05;34.21;125687.94;4986064;28;20145;-89
2022/06/03 07:43:41;;;;;;;4.28;1.67;;;23.00;74.00;;;-144.05;33.64;125687.94;4973605;28;20053;-88
2022/06/03 07:46:39;;;;;;;3.60;2.08;;;23.10;72.00;;;-144.05;33.54;125687.94;4970505;28;20093;-86
2022/06/03 07:49:07;;;;;;;4.72;1.92;;;23.00;71.30;;;-144.05;34.02;125687.94;4978544;28;20022;-86
2022/06/03 07:51:47;;;;;;;4.70;2.10;;;23.20;73.00;;;-144.05;33.61;125687.94;4977505;28;20058;-82
2022/06/03 07:54:30;;;;;;;2.40;1.80;;;23.10;70.60;;;-144.05;33.77;125687.94;4976100;28;20034;-84
2022/06/03 07:57:20;;;;;;;3.50;2.15;;;23.10;71.20;;;-144.05;33.85;125687.94;4960682;28;20043;-89
2022/06/03 07:59:46;;;;;;;3.72;1.88;;;22.80;71.10;;;-144.05;33.65;125687.94;4975787;28;20497;-88
2022/06/03 08:02:18;;;;;;;3.80;1.92;;;22.60;71.30;;;-144.05;34.74;125687.94;4959244;28;20034;-88
2022/06/03 08:05:09;;;;;;;3.97;2.00;;;22.60;74.00;;;-144.05;34.04;125687.94;4976465;28;20218;-88
2022/06/03 08:13:19;;;;;;;7.15;1.85;;;23.40;68.90;;;-144.05;34.19;125687.94;4972069;28;20387;-90
2022/06/03 08:16:05;;;;;;;2.20;1.65;;;23.00;70.00;;;-144.05;33.84;125687.94;4991389;28;20077;-86
2022/06/03 08:18:42;;;;;;;2.08;1.88;;;22.90;70.00;;;-144.05;33.82;125687.94;4975039;28;20065;-84
2022/06/03 08:21:25;;;;;;;4.68;1.90;;;22.90;70.60;;;-144.05;33.16;125687.94;4976348;28;20046;-89
2022/06/03 08:23:58;;;;;;;2.25;1.45;;;23.50;69.30;;;-144.05;32.74;125687.94;4976579;28;20085;-89
2022/06/03 08:26:28;;;;;;;5.93;2.30;;;24.10;68.30;;;-144.05;32.51;125687.94;4975401;28;20030;-88
2022/06/03 08:29:43;;;;;;;3.88;2.00;;;24.10;66.80;;;-144.05;32.00;125687.94;4976017;28;20372;-89
2022/06/03 08:32:39;;;;;;;3.70;2.10;;;24.30;65.50;;;-144.05;32.55;125687.94;4959573;28;20042;-89
2022/06/03 08:35:17;;;;;;;7.38;2.53;;;24.20;65.50;;;-144.05;32.55;125687.94;4972968;28;20399;-86
2022/06/03 08:38:12;;;;;;;4.72;2.80;;;24.30;65.40;;;-144.05;32.54;125687.94;4978634;28;20046;-89
2022/06/03 08:41:55;;;;;;;2.95;2.03;;;24.40;66.70;;;-144.05;32.51;125687.94;4995890;28;20102;-87
2022/06/03 08:44:53;;;;;;;2.70;1.63;;;24.70;66.30;;;-144.05;31.48;125687.94;4980764;28;20031;-89
2022/06/03 08:47:48;;;;;;;5.40;1.70;;;25.40;64.00;;;-144.05;31.90;125687.94;4984452;28;20035;-90
2022/06/03 08:51:12;;;;;;;4.35;2.08;;;25.20;63.60;;;-144.05;31.38;125687.94;4979764;28;20090;-89
2022/06/03 08:54:01;;;;;;;4.07;1.58;;;25.10;62.20;;;-144.05;31.55;125687.94;4978170;28;20156;-89
2022/06/03 08:56:39;;;;;;;3.08;2.00;;;25.30;64.10;;;-144.05;32.16;125687.94;4976635;28;20034;-89
2022/06/03 08:59:40;;;;;;;2.80;2.00;;;24.90;63.60;;;-144.05;33.47;125687.94;4968956;28;20074;-88
2022/06/03 09:02:19;;;;;;;2.80;1.90;;;24.60;66.40;;;-144.05;32.73;125687.94;4978193;28;20101;-90
2022/06/03 09:05:12;;;;;;;3.63;2.10;;;24.60;65.10;;;-144.05;32.36;125687.94;4978825;28;20073;-90
2022/06/03 09:07:50;;;;;;;2.72;1.65;;;24.50;63.50;;;-144.05;32.40;125687.94;4977050;28;20034;-84
2022/06/03 09:10:32;;;;;;;2.72;1.77;;;24.30;63.50;;;-144.05;32.63;125687.94;4976072;28;20023;-88
2022/06/03 09:13:33;;;;;;;4.40;1.58;;;24.30;64.30;;;-144.05;32.90;125687.94;4976890;28;20038;-88
2022/06/03 09:16:06;;;;;;;4.32;1.60;;;24.80;65.30;;;-144.05;31.95;125687.94;4979265;28;20033;-88
2022/06/03 09:18:48;;;;;;;2.25;1.48;;;25.40;63.60;;;-144.05;31.25;125687.94;4978084;28;20031;-89
2022/06/03 09:21:31;;;;;;;4.30;1.50;;;25.50;61.90;;;-144.05;30.80;125687.94;4960335;28;20099;-88
2022/06/03 09:24:33;;;;;;;2.60;1.55;;;25.60;60.70;;;-144.05;31.09;125687.94;4978461;28;20042;-85
2022/06/03 09:27:04;;;;;;;3.33;1.83;;;25.60;60.00;;;-144.05;30.99;125687.94;4960863;28;20035;-90
2022/06/03 09:29:31;;;;;;;4.53;1.80;;;25.70;60.90;;;-144.05;31.20;125687.94;4976599;28;20033;-90
2022/06/03 09:32:04;;;;;;;7.18;1.98;;;25.70;61.40;;;-144.05;31.04;125687.94;4961148;28;20400;-87
2022/06/03 09:34:52;;;;;;;4.47;1.83;;;25.60;60.70;;;-144.05;30.93;125687.94;4977958;28;20030;-89
2022/06/03 09:37:35;;;;;;;2.75;2.00;;;25.80;60.40;;;-144.05;31.28;125687.94;4977922;28;20046;-85
2022/06/03 09:40:08;;;;;;;3.35;1.63;;;26.10;62.10;;;-144.05;30.17;125687.94;4976395;28;20085;-85
2022/06/03 09:42:37;;;;;;;2.13;1.70;;;26.50;59.10;;;-144.05;29.32;125687.94;4984232;28;20031;-84
2022/06/03 09:45:07;;;;;;;5.47;1.90;;;26.60;57.60;;;-144.05;29.81;125687.94;4996451;28;20010;-84
2022/06/03 09:47:36;;;;;;;2.60;1.60;;;26.70;58.00;;;-144.05;29.82;125687.94;4979167;28;20399;-90
2022/06/03 09:50:04;;;;;;;3.08;1.73;;;26.70;58.40;;;-144.05;29.50;125687.94;4978990;28;20398;-89
2022/06/03 09:52:30;;;;;;;3.30;1.88;;;26.60;57.40;;;-144.05;29.69;125687.94;4976880;28;20038;-85
2022/06/03 09:55:23;;;;;;;2.42;1.60;;;26.60;57.20;;;-144.05;29.52;125687.94;4979402;28;20030;-85
2022/06/03 09:57:49;;;;;;;4.53;1.50;;;26.60;56.90;;;-144.05;29.71;125687.94;4977304;28;20054;-87
2022/06/03 10:00:26;;;;;;;1.70;1.40;;;26.50;57.20;;;-144.05;30.00;125687.94;4961374;28;20027;-91
2022/06/03 10:02:56;;;;;;;2.28;1.27;;;26.60;58.40;;;-144.05;29.53;125687.94;4977525;28;20095;-88
2022/06/03 10:05:24;;;;;;;3.78;1.40;;;26.80;57.00;;;-144.05;29.53;125687.94;4961754;28;20099;-89
2022/06/03 10:08:03;;;;;;;1.70;1.30;;;26.80;56.80;;;-144.05;30.04;125687.94;4974363;28;20395;-89
2022/06/03 10:13:17;;;;;;;5.00;1.60;;;26.20;58.90;;;-144.05;30.30;125687.94;4970011;28;20042;-87
2022/06/03 10:16:00;;;;;;;2.95;1.40;;;26.10;57.60;;;-144.05;29.81;125687.94;4971741;28;20077;-90
2022/06/03 10:18:49;;;;;;;5.18;1.50;;;26.30;58.10;;;-144.05;30.96;125687.94;4985574;28;20037;-89
2022/06/03 10:21:15;;;;;;;2.45;1.40;;;26.50;59.80;;;-144.05;29.59;125687.94;4975192;28;20061;-88
2022/06/03 10:23:51;;;;;;;2.15;1.30;;;26.80;57.90;;;-144.05;29.15;125687.94;4973869;28;20384;-86
2022/06/03 10:26:39;;;;;;;1.98;1.40;;;26.70;55.60;;;-144.05;29.46;125687.94;4975946;28;20479;-84
2022/06/03 10:29:20;;;;;;;3.65;1.58;;;26.50;55.20;;;-144.05;30.21;125687.94;4969413;28;20034;-88
2022/06/03 10:32:08;;;;;;;1.90;1.60;;;26.10;57.00;;;-144.05;30.23;125687.94;4976526;28;20395;-86
2022/06/03 10:34:41;;;;;;;5.68;1.30;;;26.10;57.60;;;-144.05;29.55;125687.94;4988356;28;20030;-89
2022/06/03 10:37:21;;;;;;;2.17;1.17;;;26.00;56.30;;;-144.05;30.99;125687.94;4991364;28;20406;-85
2022/06/03 10:39:47;;;;;;;2.08;1.15;;;25.40;58.00;;;-144.05;31.44;125687.94;4974627;28;20026;-91
2022/06/03 10:42:21;;;;;;;1.60;1.05;;;25.40;59.50;;;-144.05;31.22;125687.94;4975564;28;20603;-88
2022/06/03 10:44:57;;;;;;;2.72;0.93;;;25.50;59.40;;;-144.05;30.63;125687.94;4975342;28;20117;-89
2022/06/03 10:47:39;;;;;;;2.58;1.05;;;25.90;58.40;;;-144.05;30.57;125687.94;4977563;28;20031;-84
2022/06/03 10:50:26;;;;;;;2.13;1.00;;;25.80;58.30;;;-144.05;31.17;125687.94;4968688;28;20037;-84
2022/06/03 11:02:03;;;;;;;3.63;0.90;;;25.30;57.80;;;-144.05;31.35;125687.94;4976587;28;20030;-88
2022/06/03 11:04:38;;;;;;;3.13;1.10;;;25.40;59.20;;;-144.05;31.25;125687.94;4988159;28;20030;-87
2022/06/03 11:07:30;;;;;;;2.30;1.00;;;24.90;58.00;;;-144.05;31.38;125687.94;4991271;28;20030;-87
2022/06/03 11:10:13;;;;;;;4.97;1.50;;;24.60;59.30;;;-144.05;30.73;125687.94;4974622;28;20034;-87
2022/06/03 11:12:42;;;;;;;4.63;1.00;;;24.70;57.40;;;-144.05;30.92;125687.94;4954582;28;20058;-89
2022/06/03 11:15:23;;;;;;;2.17;1.15;;;25.30;58.40;;;-144.05;30.26;125687.94;4954035;29;20027;-85
2022/06/03 11:17:52;;;;;;;2.38;1.10;;;25.60;56.90;;;-144.05;30.35;125687.94;4955369;29;20038;-88
2022/06/03 11:20:39;;;;;;;1.55;1.02;;;25.80;56.80;;;-144.05;30.73;125687.94;4955755;29;20126;-90
2022/06/03 11:23:10;;;;;;;1.88;0.98;;;25.70;58.00;;;-144.05;30.16;125687.94;4941472;29;20071;-89
2022/06/03 11:25:57;;;;;;;1.60;1.00;;;26.50;56.80;;;-144.05;29.76;125687.94;4957815;29;20078;-91
2022/06/03 11:28:39;;;;;;;2.85;1.00;;;27.10;56.10;;;-144.05;28.87;125687.94;4957486;28;20043;-88
2022/06/03 11:31:37;;;;;;;1.13;0.98;;;26.70;53.50;;;-144.05;29.35;125687.94;4937950;29;20047;-87
2022/06/03 11:34:29;;;;;;;1.15;1.05;;;26.30;54.20;;;-144.05;29.38;125687.94;4957535;28;20046;-89
2022/06/03 11:37:12;;;;;;;4.10;1.25;;;26.40;54.80;;;-144.05;29.43;125687.94;4941374;29;20484;-90
2022/06/03 11:40:09;;;;;;;2.13;1.25;;;26.10;54.50;;;-144.05;30.45;125687.94;4959352;29;20032;-91
2022/06/03 11:42:50;;;;;;;2.90;1.42;;;25.60;56.30;;;-144.05;30.34;125687.94;4938030;29;20403;-87
2022/06/03 11:45:32;;;;;;;2.25;1.30;;;25.40;56.60;;;-144.05;30.22;125687.94;4941650;29;20341;-89
2022/06/03 11:48:33;;;;;;;2.08;1.15;;;25.40;56.20;;;-144.05;30.31;125687.94;4956968;29;20035;-84
2022/06/03 11:51:01;;;;;;;3.60;1.15;;;25.40;56.20;;;-144.05;29.94;125687.94;4953852;28;20110;-78
2022/06/03 11:53:34;;;;;;;4.10;1.00;;;25.40;55.70;;;-144.05;30.41;125687.94;4973523;28;20146;-85
2022/06/03 11:56:05;;;;;;;2.28;1.17;;;25.30;56.40;;;-144.05;31.18;125687.94;4957728;29;20027;-87
2022/06/03 11:59:04;;;;;;;2.28;1.00;;;25.10;57.20;;;-144.05;30.62;125687.94;4955398;29;20038;-85
2022/06/03 12:01:49;;;;;;;2.97;1.45;;;25.20;56.70;;;-144.05;31.22;125687.94;4956989;29;20035;-87
2022/06/03 12:04:52;;;;;;;1.58;1.38;;;25.50;58.20;;;-144.05;30.41;125687.94;4957833;28;20039;-88
2022/06/03 12:07:54;;;;;;;2.53;1.00;;;25.70;57.40;;;-144.05;30.45;125687.94;4960339;29;20039;-85
2022/06/03 12:10:53;;;;;;;1.65;1.10;;;26.30;57.90;;;-144.05;30.24;125687.94;4964234;28;20058;-88
2022/06/03 12:13:30;;;;;;;2.42;1.02;;;26.10;56.40;;;-144.05;30.28;125687.94;4976579;28;20082;-88
2022/06/03 12:15:57;;;;;;;2.83;1.10;;;26.00;57.40;;;-144.05;29.82;125687.94;4979345;28;20034;-86
2022/06/03 12:19:00;;;;;;;2.47;0.80;;;25.70;55.20;;;-144.05;30.24;125687.94;4979614;28;20027;-86
2022/06/03 12:21:30;;;;;;;1.38;1.13;;;25.70;56.70;;;-144.05;30.04;125687.94;4992567;28;20045;-86
2022/06/03 12:24:40;;;;;;;2.40;0.90;;;26.00;56.10;;;-144.05;29.46;125687.94;4961873;28;20031;-87
2022/06/03 12:27:23;;;;;;;1.92;1.20;;;26.50;55.40;;;-144.05;29.84;125687.94;4982595;28;20383;-83